Terminal Aerodrome Forecast
Issued by NWS Shreveport, LA

Home | Current Version | Previous Version | Text Only | Print | Product List | Glossary On
Versions: 1 2 3 4 5 6 7 8 9 10 11 12 13 14 15 16 17 18 19 20 21 22 23 24
000
FTUS44 KSHV 191149
TAFGGG
TAF
KGGG 191149Z 1912/2012 17012G18KT P6SM FEW020 OVC030
      TEMPO 1912/1915 BKN020
     FM191500 17017G26KT P6SM OVC030
     FM191800 18019G28KT P6SM BKN035 BKN050
     FM200200 16015G25KT P6SM BKN015 OVC040=

USA.gov is the U.S. government's official web portal to all federal, state and local government web resources and services.